createdAt,value
2019-01-31T00:01:53.407Z,93.35
2019-01-31T00:05:21.837Z,93.27
2019-01-31T00:08:11.852Z,93.24
2019-01-31T00:11:40.289Z,93.38
2019-01-31T00:14:42.564Z,92.76
2019-01-31T00:18:10.984Z,92.43
2019-01-31T00:21:00.201Z,92.64
2019-01-31T00:24:28.656Z,92.00
2019-01-31T00:27:30.544Z,92.14
2019-01-31T00:30:46.167Z,92.00
2019-01-31T00:33:54.451Z,92.19
2019-01-31T00:37:11.262Z,92.57
2019-01-31T00:40:03.236Z,92.19
2019-01-31T00:42:51.955Z,92.00
2019-01-31T00:46:20.389Z,92.29
2019-01-31T00:49:07.927Z,92.20
2019-01-31T00:52:36.360Z,92.51
2019-01-31T00:55:25.887Z,92.02
2019-01-31T00:58:54.319Z,92.40
2019-01-31T01:01:55.841Z,92.25
2019-01-31T01:05:24.307Z,92.48
2019-01-31T01:08:10.883Z,92.63
2019-01-31T01:11:39.321Z,92.00
2019-01-31T01:14:41.315Z,91.52
2019-01-31T01:18:09.740Z,91.65
2019-01-31T01:21:03.879Z,91.76
2019-01-31T01:24:09.335Z,91.77
2019-01-31T01:27:11.283Z,91.59
2019-01-31T01:30:23.633Z,91.55
2019-01-31T01:36:37.481Z,91.77
2019-01-31T01:39:45.615Z,92.19
2019-01-31T01:43:01.060Z,92.12
2019-01-31T01:45:49.907Z,92.17
2019-01-31T01:49:02.716Z,92.34
2019-01-31T01:52:07.815Z,92.54
2019-01-31T01:55:20.818Z,92.81
2019-01-31T02:01:31.019Z,91.84
2019-01-31T02:04:59.515Z,91.86
2019-01-31T02:07:54.272Z,91.81
2019-01-31T02:11:22.697Z,91.84
2019-01-31T02:14:24.605Z,91.75
2019-01-31T02:17:38.921Z,91.59
2019-01-31T02:20:52.013Z,91.39
2019-01-31T02:24:20.499Z,91.49
2019-01-31T02:27:26.105Z,91.76
2019-01-31T02:30:54.552Z,91.33
2019-01-31T02:33:56.533Z,91.25
2019-01-31T02:37:08.875Z,91.01
2019-01-31T02:40:10.639Z,90.84
2019-01-31T02:43:22.498Z,90.78
2019-01-31T02:46:35.783Z,90.67
2019-01-31T02:49:37.695Z,90.63
2019-01-31T02:53:06.188Z,90.68
2019-01-31T02:56:08.604Z,91.14
2019-01-31T02:59:37.064Z,90.50
2019-01-31T03:02:38.744Z,90.61
2019-01-31T03:06:02.261Z,90.36
2019-01-31T03:08:52.411Z,90.47
2019-01-31T03:11:59.152Z,89.30
2019-01-31T03:15:11.433Z,89.01
2019-01-31T03:18:13.015Z,89.47
2019-01-31T03:21:41.448Z,89.32
2019-01-31T03:25:09.907Z,89.19
2019-01-31T03:28:11.968Z,89.06
2019-01-31T03:31:40.448Z,89.47
2019-01-31T03:34:27.269Z,89.00
2019-01-31T03:37:55.721Z,89.31
2019-01-31T03:41:03.706Z,89.64
2019-01-31T03:44:12.405Z,89.45
2019-01-31T03:47:14.518Z,88.98
2019-01-31T03:50:23.284Z,88.76
2019-01-31T03:53:05.748Z,88.70
2019-01-31T03:56:07.453Z,88.77
2019-01-31T03:59:35.900Z,89.15
2019-01-31T04:02:40.642Z,88.68
2019-01-31T04:06:09.069Z,88.71
2019-01-31T04:08:52.058Z,88.21
2019-01-31T04:11:42.593Z,88.36
2019-01-31T04:14:27.421Z,88.66
2019-01-31T04:17:17.825Z,88.47
2019-01-31T04:20:00.755Z,88.45
2019-01-31T04:22:51.154Z,88.70
2019-01-31T04:25:34.446Z,87.99
2019-01-31T04:28:24.810Z,88.25
2019-01-31T04:31:08.140Z,88.09
2019-01-31T04:33:58.523Z,87.74
2019-01-31T04:36:41.272Z,88.21
2019-01-31T04:39:31.641Z,88.02
2019-01-31T04:42:14.977Z,88.04
2019-01-31T04:48:53.353Z,88.01
2019-01-31T04:51:43.769Z,88.34
2019-01-31T04:54:34.232Z,88.73
2019-01-31T04:57:37.306Z,88.58
2019-01-31T05:00:27.711Z,88.41
2019-01-31T05:03:11.064Z,88.55
2019-01-31T05:06:01.404Z,88.97
2019-01-31T05:09:10.634Z,89.26
2019-01-31T05:11:53.867Z,89.56
2019-01-31T05:14:44.222Z,89.61
2019-01-31T05:17:34.577Z,89.51
2019-01-31T05:20:18.009Z,89.26
2019-01-31T05:23:08.365Z,89.19
2019-01-31T05:25:51.772Z,89.18
2019-01-31T05:28:42.164Z,89.12
2019-01-31T05:31:44.673Z,89.27
2019-01-31T05:34:35.075Z,89.04
2019-01-31T05:37:18.315Z,89.43
2019-01-31T05:43:57.244Z,88.60
2019-01-31T05:46:47.656Z,88.64
2019-01-31T05:49:52.841Z,88.44
2019-01-31T05:52:42.497Z,88.26
2019-01-31T05:55:32.819Z,88.43
2019-01-31T05:58:16.093Z,88.74
2019-01-31T06:01:06.463Z,88.40
2019-01-31T06:03:48.992Z,88.30
2019-01-31T06:06:31.979Z,88.34
2019-01-31T06:09:22.329Z,88.46
2019-01-31T06:12:05.690Z,88.35
2019-01-31T06:14:56.009Z,88.11
2019-01-31T06:17:38.780Z,88.09
2019-01-31T06:23:31.494Z,88.16
2019-01-31T06:26:21.821Z,87.98
2019-01-31T06:29:04.419Z,88.01
2019-01-31T06:31:54.825Z,87.46
2019-01-31T06:34:38.238Z,87.40
2019-01-31T06:37:28.625Z,87.04
2019-01-31T06:40:13.170Z,87.00
2019-01-31T06:43:03.575Z,86.59
2019-01-31T06:45:46.894Z,86.09
2019-01-31T06:48:37.270Z,85.96
2019-01-31T06:51:20.201Z,85.56
2019-01-31T06:54:10.569Z,85.48
2019-01-31T06:56:53.484Z,85.36
2019-01-31T06:59:43.875Z,84.97
2019-01-31T07:02:27.417Z,85.22
2019-01-31T07:05:17.770Z,85.11
2019-01-31T07:08:08.139Z,85.31
2019-01-31T07:10:58.529Z,85.50
2019-01-31T07:13:41.655Z,85.90
2019-01-31T07:16:32.022Z,86.82
2019-01-31T07:19:14.950Z,87.38
2019-01-31T07:22:05.597Z,87.63
2019-01-31T07:24:48.355Z,87.21
2019-01-31T07:27:38.725Z,86.74
2019-01-31T07:30:22.206Z,85.03
2019-01-31T07:33:12.523Z,84.63
2019-01-31T07:35:55.450Z,84.19
2019-01-31T07:38:45.836Z,84.74
2019-01-31T07:41:40.647Z,83.62
2019-01-31T07:44:21.314Z,84.45
2019-01-31T07:47:11.695Z,84.62
2019-01-31T07:49:55.191Z,85.16
2019-01-31T07:52:45.574Z,84.84
2019-01-31T07:55:28.192Z,84.27
2019-01-31T07:58:20.532Z,83.98
2019-01-31T08:01:22.786Z,84.04
2019-01-31T08:04:05.520Z,83.76
2019-01-31T08:06:55.965Z,84.06
2019-01-31T08:09:38.506Z,84.42
2019-01-31T08:12:28.968Z,84.17
2019-01-31T08:15:11.540Z,84.28
2019-01-31T08:18:01.871Z,84.46
2019-01-31T08:20:44.658Z,85.27
2019-01-31T08:23:35.047Z,85.14
2019-01-31T08:26:17.681Z,84.96
2019-01-31T08:29:08.073Z,84.91
2019-01-31T08:31:50.893Z,85.33
2019-01-31T08:34:22.165Z,85.06
2019-01-31T08:37:04.966Z,85.28
2019-01-31T08:39:55.360Z,85.20
2019-01-31T08:42:39.321Z,85.17
2019-01-31T08:45:22.034Z,84.20
2019-01-31T08:48:12.477Z,83.82
2019-01-31T08:50:54.973Z,83.36
2019-01-31T08:53:37.815Z,83.66
2019-01-31T08:56:28.198Z,83.65
2019-01-31T08:59:11.438Z,83.31
2019-01-31T09:01:54.153Z,83.61
2019-01-31T09:04:44.543Z,83.88
2019-01-31T09:07:47.556Z,84.07
2019-01-31T09:10:39.522Z,84.41
2019-01-31T09:13:22.337Z,85.07
2019-01-31T09:16:12.726Z,85.21
2019-01-31T09:18:55.290Z,86.00
2019-01-31T09:22:10.236Z,86.28
2019-01-31T09:25:03.996Z,87.30
2019-01-31T09:28:17.210Z,88.41
2019-01-31T09:31:19.129Z,89.65
2019-01-31T09:34:47.583Z,90.21
2019-01-31T09:37:40.211Z,90.78
2019-01-31T09:41:08.686Z,91.24
2019-01-31T09:44:00.876Z,91.86
2019-01-31T09:47:31.694Z,92.49
2019-01-31T09:51:19.411Z,93.22
2019-01-31T09:54:34.270Z,93.49
2019-01-31T09:57:36.010Z,94.04
2019-01-31T10:01:04.421Z,93.94
2019-01-31T10:04:12.510Z,94.24
2019-01-31T10:07:40.956Z,93.97
2019-01-31T10:14:14.151Z,94.31
2019-01-31T10:17:02.808Z,94.03
2019-01-31T10:20:03.573Z,94.05
2019-01-31T10:22:51.276Z,94.90
2019-01-31T10:26:19.686Z,94.40
2019-01-31T10:29:21.944Z,94.56
2019-01-31T10:32:50.365Z,94.91
2019-01-31T10:35:51.978Z,94.21
2019-01-31T10:39:20.407Z,92.79
2019-01-31T10:42:09.604Z,92.16
2019-01-31T10:44:51.841Z,91.87
2019-01-31T10:47:33.884Z,91.70
2019-01-31T10:50:35.679Z,92.19
2019-01-31T10:54:04.087Z,92.32
2019-01-31T10:57:09.195Z,91.91
2019-01-31T11:00:37.678Z,90.96
2019-01-31T11:03:23.542Z,91.04
2019-01-31T11:06:51.997Z,90.49
2019-01-31T11:09:46.704Z,89.54
2019-01-31T11:13:15.164Z,89.19
2019-01-31T11:16:03.511Z,89.79
2019-01-31T11:19:19.867Z,89.52
2019-01-31T11:22:48.286Z,88.69
2019-01-31T11:25:56.474Z,89.04
2019-01-31T11:29:20.931Z,89.11
2019-01-31T11:32:22.628Z,89.40
2019-01-31T11:35:24.969Z,89.40
2019-01-31T11:39:10.515Z,89.61
2019-01-31T11:42:24.257Z,89.88
2019-01-31T11:48:26.140Z,88.50
2019-01-31T11:52:11.887Z,88.00
2019-01-31T11:55:10.346Z,86.89
2019-01-31T11:58:38.868Z,87.18
2019-01-31T12:01:21.684Z,86.38
2019-01-31T12:04:31.107Z,86.44
2019-01-31T12:07:14.619Z,86.36
2019-01-31T12:09:58.428Z,86.55
2019-01-31T12:12:48.795Z,87.53
2019-01-31T12:15:32.270Z,86.83
2019-01-31T12:18:22.640Z,85.90
2019-01-31T12:21:05.264Z,85.20
2019-01-31T12:23:55.919Z,84.68
2019-01-31T12:26:38.772Z,85.94
2019-01-31T12:32:30.786Z,85.83
2019-01-31T12:35:21.104Z,85.93
2019-01-31T12:38:04.322Z,85.75
2019-01-31T12:40:54.694Z,85.57
2019-01-31T12:43:37.648Z,86.08
2019-01-31T12:46:28.011Z,83.78
2019-01-31T12:49:12.899Z,84.20
2019-01-31T12:52:04.349Z,84.17
2019-01-31T12:55:07.816Z,82.51
2019-01-31T12:57:58.151Z,83.04
2019-01-31T13:00:41.124Z,83.46
2019-01-31T13:03:24.738Z,82.62
2019-01-31T13:06:07.439Z,83.35
2019-01-31T13:08:57.781Z,83.74
2019-01-31T13:11:41.132Z,83.74
2019-01-31T13:14:23.698Z,83.83
2019-01-31T13:17:07.151Z,82.37
2019-01-31T13:19:58.005Z,82.55
2019-01-31T13:23:01.973Z,82.14
2019-01-31T13:26:12.829Z,83.11
2019-01-31T13:28:55.793Z,83.73
2019-01-31T13:31:46.166Z,82.83
2019-01-31T13:34:29.498Z,83.57
2019-01-31T13:37:19.820Z,84.42
2019-01-31T13:40:03.201Z,82.77
2019-01-31T13:42:54.321Z,83.71
2019-01-31T13:45:37.846Z,83.01
2019-01-31T13:48:28.233Z,83.10
2019-01-31T13:51:10.742Z,83.91
2019-01-31T13:54:01.126Z,84.07
2019-01-31T13:56:45.718Z,83.82
2019-01-31T13:59:36.387Z,84.15
2019-01-31T14:02:19.598Z,84.81
2019-01-31T14:05:10.154Z,84.69
2019-01-31T14:08:12.756Z,84.78
2019-01-31T14:10:44.005Z,85.00
2019-01-31T14:13:34.362Z,84.14
2019-01-31T14:16:16.956Z,84.30
2019-01-31T14:19:07.299Z,85.09
2019-01-31T14:21:50.253Z,85.76
2019-01-31T14:24:40.578Z,85.93
2019-01-31T14:27:23.665Z,85.49
2019-01-31T14:30:34.223Z,86.03
2019-01-31T14:33:27.352Z,86.43
2019-01-31T14:36:10.475Z,86.51
2019-01-31T14:42:26.287Z,85.30
2019-01-31T14:45:16.852Z,85.34
2019-01-31T14:48:00.503Z,85.80
2019-01-31T14:50:51.030Z,86.89
2019-01-31T14:53:33.602Z,87.73
2019-01-31T14:56:16.373Z,87.16
2019-01-31T14:59:07.067Z,87.42
2019-01-31T15:01:50.175Z,87.55
2019-01-31T15:04:40.526Z,87.60
2019-01-31T15:07:24.014Z,86.97
2019-01-31T15:10:17.330Z,86.49
2019-01-31T15:12:59.944Z,86.50
2019-01-31T15:15:50.392Z,86.21
2019-01-31T15:18:33.774Z,86.92
2019-01-31T15:21:24.121Z,87.11
2019-01-31T15:24:07.377Z,87.63
2019-01-31T15:26:57.697Z,87.70
2019-01-31T15:29:40.297Z,87.40
2019-01-31T15:32:32.838Z,87.88
2019-01-31T15:35:35.189Z,87.82
2019-01-31T15:38:25.599Z,88.55
2019-01-31T15:41:08.114Z,88.46
2019-01-31T15:43:58.481Z,87.97
2019-01-31T15:46:41.150Z,88.47
2019-01-31T15:49:31.515Z,88.37
2019-01-31T15:52:14.281Z,88.33
2019-01-31T15:58:33.716Z,88.78
2019-01-31T16:01:24.169Z,89.02
2019-01-31T16:04:07.143Z,89.39
2019-01-31T16:06:57.525Z,89.60
2019-01-31T16:09:40.376Z,90.21
2019-01-31T16:12:30.908Z,89.75
2019-01-31T16:15:14.262Z,89.87
2019-01-31T16:21:33.601Z,88.84
2019-01-31T16:24:24.308Z,89.08
2019-01-31T16:27:07.167Z,90.03
2019-01-31T16:29:57.557Z,90.19
2019-01-31T16:32:40.970Z,90.79
2019-01-31T16:35:31.417Z,90.74
2019-01-31T16:38:14.082Z,90.78
2019-01-31T16:41:04.696Z,91.09
2019-01-31T16:43:47.376Z,91.35
2019-01-31T16:46:37.698Z,91.48
2019-01-31T16:49:28.050Z,91.71
2019-01-31T16:52:10.740Z,91.35
2019-01-31T16:55:01.189Z,91.40
2019-01-31T16:57:44.252Z,91.22
2019-01-31T17:04:03.837Z,91.92
2019-01-31T17:06:54.221Z,91.70
2019-01-31T17:09:39.305Z,92.18
2019-01-31T17:12:29.138Z,91.99
2019-01-31T17:15:19.749Z,92.04
2019-01-31T17:18:02.938Z,92.72
2019-01-31T17:20:53.307Z,92.65
2019-01-31T17:23:36.669Z,93.18
2019-01-31T17:26:27.020Z,92.95
2019-01-31T17:29:10.094Z,93.13
2019-01-31T17:32:00.438Z,92.61
2019-01-31T17:34:43.691Z,92.43
2019-01-31T17:37:34.098Z,92.71
2019-01-31T17:40:18.010Z,93.08
2019-01-31T17:43:01.277Z,92.09
2019-01-31T17:49:15.601Z,91.93
2019-01-31T17:52:06.024Z,91.33
2019-01-31T17:54:49.081Z,91.73
2019-01-31T17:57:39.464Z,91.26
2019-01-31T18:03:44.641Z,91.57
2019-01-31T18:06:27.783Z,92.47
2019-01-31T18:09:18.130Z,92.63
2019-01-31T18:12:01.660Z,92.36
2019-01-31T18:14:51.975Z,93.00
2019-01-31T18:17:35.370Z,92.87
2019-01-31T18:20:25.765Z,93.06
2019-01-31T18:23:08.997Z,92.69
2019-01-31T18:25:59.404Z,92.91
2019-01-31T18:28:49.780Z,92.95
2019-01-31T18:31:32.636Z,92.79
2019-01-31T18:34:43.464Z,92.67
2019-01-31T18:37:46.390Z,92.80
2019-01-31T18:40:22.113Z,93.14
2019-01-31T18:43:12.530Z,93.42
2019-01-31T18:46:03.030Z,93.83
2019-01-31T18:48:46.151Z,93.88
2019-01-31T18:51:36.558Z,93.35
2019-01-31T18:54:21.194Z,92.42
2019-01-31T18:57:12.863Z,92.24
2019-01-31T19:03:40.404Z,92.13
2019-01-31T19:06:23.032Z,91.77
2019-01-31T19:09:13.427Z,91.48
2019-01-31T19:11:56.071Z,91.52
2019-01-31T19:14:46.468Z,91.25
2019-01-31T19:17:29.654Z,91.14
2019-01-31T19:20:39.281Z,91.50
2019-01-31T19:23:22.282Z,91.64
2019-01-31T19:26:12.667Z,91.00
2019-01-31T19:28:55.966Z,91.47
2019-01-31T19:31:48.411Z,91.39
2019-01-31T19:34:57.679Z,90.93
2019-01-31T19:37:40.587Z,90.62
2019-01-31T19:40:32.869Z,91.28
2019-01-31T19:43:15.626Z,91.09
2019-01-31T19:45:58.583Z,90.86
2019-01-31T19:48:49.034Z,90.21
2019-01-31T19:51:31.879Z,90.84
2019-01-31T19:54:22.385Z,90.76
2019-01-31T19:57:05.135Z,90.94
2019-01-31T19:59:55.606Z,91.33
2019-01-31T20:02:39.067Z,91.60
2019-01-31T20:08:58.102Z,92.20
2019-01-31T20:11:51.014Z,91.72
2019-01-31T20:14:41.402Z,91.80
2019-01-31T20:17:24.145Z,91.38
2019-01-31T20:20:18.064Z,90.90
2019-01-31T20:23:01.601Z,90.48
2019-01-31T20:25:52.064Z,89.27
2019-01-31T20:28:35.548Z,89.08
2019-01-31T20:31:26.061Z,89.85
2019-01-31T20:34:08.709Z,90.27
2019-01-31T20:36:59.243Z,90.26
2019-01-31T20:39:49.829Z,90.41
2019-01-31T20:42:40.247Z,90.45
2019-01-31T20:45:23.353Z,90.82
2019-01-31T20:48:13.700Z,91.18
2019-01-31T20:50:56.757Z,91.61
2019-01-31T20:53:47.157Z,91.58
2019-01-31T20:56:51.176Z,91.70
2019-01-31T20:59:41.900Z,91.38
2019-01-31T21:02:25.409Z,91.06
2019-01-31T21:05:16.046Z,91.26
2019-01-31T21:07:58.983Z,91.17
2019-01-31T21:10:49.461Z,91.05
2019-01-31T21:13:32.697Z,90.78
2019-01-31T21:16:23.348Z,90.74
2019-01-31T21:19:06.702Z,90.31
2019-01-31T21:21:57.192Z,90.18
2019-01-31T21:24:40.459Z,89.64
2019-01-31T21:27:31.006Z,89.40
2019-01-31T21:30:34.593Z,89.10
2019-01-31T21:36:33.009Z,88.68
2019-01-31T21:39:26.676Z,88.22
2019-01-31T21:42:09.596Z,87.70
2019-01-31T21:45:00.102Z,87.85
2019-01-31T21:47:43.701Z,87.57
2019-01-31T21:50:34.259Z,87.42
2019-01-31T21:53:16.976Z,87.53
2019-01-31T21:56:07.384Z,87.27
2019-01-31T21:58:50.251Z,87.65
2019-01-31T22:01:40.661Z,87.73
2019-01-31T22:04:24.109Z,87.60
2019-01-31T22:07:14.518Z,87.72
2019-01-31T22:09:57.333Z,88.04
2019-01-31T22:12:47.844Z,87.86
2019-01-31T22:15:31.583Z,87.75
2019-01-31T22:18:22.052Z,87.24
2019-01-31T22:21:05.439Z,87.18
2019-01-31T22:23:55.825Z,87.01
2019-01-31T22:26:39.100Z,86.98
2019-01-31T22:29:29.511Z,87.11
2019-01-31T22:32:12.233Z,87.13
2019-01-31T22:35:02.630Z,87.91
2019-01-31T22:37:45.366Z,87.75
2019-01-31T22:40:36.537Z,87.60
2019-01-31T22:43:19.201Z,87.33
2019-01-31T22:46:09.624Z,87.32
2019-01-31T22:49:12.159Z,87.16
2019-01-31T22:52:02.609Z,86.61
2019-01-31T22:54:46.009Z,86.42
2019-01-31T22:57:36.399Z,87.07
2019-01-31T23:00:40.769Z,87.37
2019-01-31T23:03:33.853Z,86.39
2019-01-31T23:06:17.347Z,86.73
2019-01-31T23:12:39.289Z,86.77
2019-01-31T23:15:29.632Z,86.91
2019-01-31T23:18:12.965Z,86.68
2019-01-31T23:21:03.511Z,86.63
2019-01-31T23:23:46.695Z,86.59
2019-01-31T23:26:37.136Z,86.48
2019-01-31T23:29:19.972Z,86.23
2019-01-31T23:32:02.806Z,86.03
2019-01-31T23:34:53.173Z,85.72
2019-01-31T23:37:35.928Z,85.77
2019-01-31T23:40:26.305Z,86.21
2019-01-31T23:43:08.865Z,85.41
2019-01-31T23:45:59.250Z,85.01
2019-01-31T23:49:01.945Z,84.71
2019-01-31T23:51:52.377Z,84.65
2019-01-31T23:54:35.828Z,84.64
2019-01-31T23:57:26.225Z,84.55
